Time;durP1;ratioP1;P1;durP2;ratioP2;P2;SDS_P1;SDS_P2;PMS_P1;PMS_P2;Temp;Humidity;BMP_temperature;BMP_pressure;BME280_temperature;BME280_humidity;BME280_pressure;Samples;Min_cycle;Max_cycle;Signal;HPM_P1;HPM_P2
2021/12/06 00:00:43;;;;;;;;;;;;;;;;;;4165650;28;7155;-50
2021/12/06 00:03:05;;;;;;;;;;;;;;;;;;4165700;28;6982;-50
2021/12/06 00:05:28;;;;;;;;;;;;;;;;;;4165609;28;7482;-50
2021/12/06 00:07:49;;;;;;;;;;;;;;;;;;4165568;28;7203;-50
2021/12/06 00:10:10;;;;;;;;;;;;;;;;;;4165430;28;7005;-50
2021/12/06 00:12:31;;;;;;;;;;;;;;;;;;4165437;28;7122;-51
2021/12/06 00:14:52;;;;;;;;;;;;;;;;;;4165595;28;6967;-51
2021/12/06 00:17:14;;;;;;;;;;;;;;;;;;4165519;28;6990;-50
2021/12/06 00:19:35;;;;;;;;;;;;;;;;;;4165316;28;7186;-51
2021/12/06 00:21:58;;;;;;;;;;;;;;;;;;4165427;28;7005;-50
2021/12/06 00:24:19;;;;;;;;;;;;;;;;;;4165347;28;7160;-50
2021/12/06 00:26:41;;;;;;;;;;;;;;;;;;4165271;28;7037;-51
2021/12/06 00:29:03;;;;;;;;;;;;;;;;;;4163981;28;7014;-50
2021/12/06 00:31:24;;;;;;;;;;;;;;;;;;4164215;28;7087;-50
2021/12/06 00:33:45;;;;;;;;;;;;;;;;;;4164133;28;7002;-50
2021/12/06 00:36:15;;;;;;;;;;;;;;;;;;4165137;28;7192;-51
2021/12/06 00:38:37;;;;;;;;;;;;;;;;;;4164272;28;7406;-50
2021/12/06 00:40:58;;;;;;;;;;;;;;;;;;4165199;28;7422;-50
2021/12/06 00:43:20;;;;;;;;;;;;;;;;;;4164000;28;7001;-50
2021/12/06 00:45:40;;;;;;;;;;;;;;;;;;4165112;28;7003;-51
2021/12/06 00:48:03;;;;;;;;;;;;;;;;;;4164893;28;7150;-51
2021/12/06 00:50:24;;;;;;;;;;;;;;;;;;4164946;28;7218;-50
2021/12/06 00:52:45;;;;;;;;;;;;;;;;;;4163822;28;7038;-50
2021/12/06 00:55:09;;;;;;;;;;;;;;;;;;4164725;28;6987;-50
2021/12/06 00:57:30;;;;;;;;;;;;;;;;;;4163614;28;7011;-50
2021/12/06 00:59:51;;;;;;;;;;;;;;;;;;4163683;28;6962;-50
2021/12/06 01:02:13;;;;;;;;;;;;;;;;;;4146609;28;7177;-49
2021/12/06 01:04:34;;;;;;;;;;;;;;;;;;4149568;28;7007;-50
2021/12/06 01:06:55;;;;;;;;;;;;;;;;;;4164734;28;6994;-50
2021/12/06 01:09:17;;;;;;;;;;;;;;;;;;4164538;28;7033;-50
2021/12/06 01:11:39;;;;;;;;;;;;;;;;;;4164633;28;6990;-50
2021/12/06 01:14:00;;;;;;;;;;;;;;;;;;4164650;28;7057;-51
2021/12/06 01:16:21;;;;;;;;;;;;;;;;;;4164583;28;6990;-50
2021/12/06 01:18:44;;;;;;;;;;;;;;;;;;4163382;28;7167;-50
2021/12/06 01:21:13;;;;;;;;;;;;;;;;;;4163349;28;7081;-50
2021/12/06 01:23:47;;;;;;;;;;;;;;;;;;4163445;28;6963;-51
2021/12/06 01:26:28;;;;;;;;;;;;;;;;;;4162964;28;6994;-50
2021/12/06 01:29:09;;;;;;;;;;;;;;;;;;4163363;28;7029;-51
2021/12/06 01:31:43;;;;;;;;;;;;;;;;;;4149555;28;6978;-50
2021/12/06 01:39:08;;;;;;;;;;;;;;;;;;4163301;28;7137;-49
2021/12/06 01:39:32;;;;;;;;;;;;;;;;;;4164326;28;6978;-49
2021/12/06 01:41:54;;;;;;;;;;;;;;;;;;4163631;28;7023;-50
2021/12/06 01:44:18;;;;;;;;;;;;;;;;;;4163171;28;7007;-50
2021/12/06 01:46:45;;;;;;;;;;;;;;;;;;4163140;28;6974;-50
2021/12/06 01:49:06;;;;;;;;;;;;;;;;;;4163131;28;7401;-50
2021/12/06 01:51:28;;;;;;;;;;;;;;;;;;4149204;28;6994;-50
2021/12/06 01:53:49;;;;;;;;;;;;;;;;;;4163066;28;6982;-51
2021/12/06 01:56:10;;;;;;;;;;;;;;;;;;4149083;28;6994;-50
2021/12/06 01:58:31;;;;;;;;;;;;;;;;;;4162557;28;7108;-52
2021/12/06 02:04:05;;;;;;;;;;;;;;;;;;4148624;28;6991;-50
2021/12/06 02:06:27;;;;;;;;;;;;;;;;;;4162762;28;7084;-51
2021/12/06 02:08:48;;;;;;;;;;;;;;;;;;4163617;28;6998;-51
2021/12/06 02:11:10;;;;;;;;;;;;;;;;;;4148717;28;7262;-51
2021/12/06 02:13:40;;;;;;;;;;;;;;;;;;4163408;28;6990;-51
2021/12/06 02:16:03;;;;;;;;;;;;;;;;;;4162411;28;6990;-50
2021/12/06 02:18:40;;;;;;;;;;;;;;;;;;4162579;28;7002;-51
2021/12/06 02:21:10;;;;;;;;;;;;;;;;;;4159748;28;6982;-51
2021/12/06 02:23:31;;;;;;;;;;;;;;;;;;4146066;28;6999;-51
2021/12/06 02:25:53;;;;;;;;;;;;;;;;;;4146128;28;6974;-50
2021/12/06 02:28:14;;;;;;;;;;;;;;;;;;4145890;28;7853;-50
2021/12/06 02:30:35;;;;;;;;;;;;;;;;;;4147086;28;6986;-50
2021/12/06 02:32:56;;;;;;;;;;;;;;;;;;4146078;28;7073;-50
2021/12/06 02:35:19;;;;;;;;;;;;;;;;;;4145987;28;6995;-50
2021/12/06 02:37:41;;;;;;;;;;;;;;;;;;4149942;28;7045;-50
2021/12/06 02:40:04;;;;;;;;;;;;;;;;;;4150580;28;7002;-51
2021/12/06 02:42:26;;;;;;;;;;;;;;;;;;4149570;28;7000;-50
2021/12/06 02:44:47;;;;;;;;;;;;;;;;;;4150363;28;7065;-51
2021/12/06 02:47:09;;;;;;;;;;;;;;;;;;4149445;28;7091;-50
2021/12/06 02:49:30;;;;;;;;;;;;;;;;;;4149366;28;6987;-51
2021/12/06 02:51:52;;;;;;;;;;;;;;;;;;4149133;28;7715;-51
2021/12/06 02:54:15;;;;;;;;;;;;;;;;;;4149279;28;6994;-50
2021/12/06 02:56:50;;;;;;;;;;;;;;;;;;4150398;28;7478;-50
2021/12/06 02:59:11;;;;;;;;;;;;;;;;;;4149988;28;6986;-51
2021/12/06 03:01:33;;;;;;;;;;;;;;;;;;4149776;28;7093;-50
2021/12/06 03:03:55;;;;;;;;;;;;;;;;;;4150169;28;7108;-52
2021/12/06 03:06:16;;;;;;;;;;;;;;;;;;4149928;28;6986;-51
2021/12/06 03:08:39;;;;;;;;;;;;;;;;;;4149112;28;7152;-51
2021/12/06 03:11:02;;;;;;;;;;;;;;;;;;4150148;28;6984;-50
2021/12/06 03:13:23;;;;;;;;;;;;;;;;;;4149871;28;6995;-50
2021/12/06 03:15:44;;;;;;;;;;;;;;;;;;4148946;28;7192;-50
2021/12/06 03:18:05;;;;;;;;;;;;;;;;;;4148826;28;6990;-50
2021/12/06 03:20:26;;;;;;;;;;;;;;;;;;4154120;28;6986;-50
2021/12/06 03:22:47;;;;;;;;;;;;;;;;;;4151332;28;7015;-50
2021/12/06 03:25:10;;;;;;;;;;;;;;;;;;4165243;28;7061;-51
2021/12/06 03:27:32;;;;;;;;;;;;;;;;;;4164588;28;7089;-50
2021/12/06 03:29:54;;;;;;;;;;;;;;;;;;4165218;28;7394;-50
2021/12/06 03:32:15;;;;;;;;;;;;;;;;;;4166051;28;7025;-50
2021/12/06 03:34:37;;;;;;;;;;;;;;;;;;4165160;28;7011;-50
2021/12/06 03:56:13;;;;;;;;;;;;;;;;;;4194802;28;6982;-51
2021/12/06 03:58:34;;;;;;;;;;;;;;;;;;4193948;28;6985;-51
2021/12/06 04:00:56;;;;;;;;;;;;;;;;;;4193985;28;6993;-51
2021/12/06 04:03:18;;;;;;;;;;;;;;;;;;4193360;28;7045;-51
2021/12/06 04:05:40;;;;;;;;;;;;;;;;;;4193515;28;7022;-51
2021/12/06 04:08:01;;;;;;;;;;;;;;;;;;4193132;28;7054;-51
2021/12/06 04:10:25;;;;;;;;;;;;;;;;;;4193187;28;7049;-51
2021/12/06 04:12:49;;;;;;;;;;;;;;;;;;4193240;28;7053;-51
2021/12/06 04:15:12;;;;;;;;;;;;;;;;;;4193284;28;7015;-51
2021/12/06 04:17:33;;;;;;;;;;;;;;;;;;4193093;28;7007;-51
2021/12/06 04:19:55;;;;;;;;;;;;;;;;;;4193181;28;6990;-54
2021/12/06 04:22:16;;;;;;;;;;;;;;;;;;4192818;28;6998;-51
2021/12/06 04:24:38;;;;;;;;;;;;;;;;;;4192995;28;7171;-51
2021/12/06 04:27:12;;;;;;;;;;;;;;;;;;4193433;28;6982;-51
2021/12/06 04:29:35;;;;;;;;;;;;;;;;;;4193013;28;7142;-51
2021/12/06 04:31:56;;;;;;;;;;;;;;;;;;4193348;28;7135;-51
2021/12/06 04:34:19;;;;;;;;;;;;;;;;;;4192947;28;7331;-52
2021/12/06 04:36:41;;;;;;;;;;;;;;;;;;4192701;28;7060;-51
2021/12/06 04:39:03;;;;;;;;;;;;;;;;;;4193271;28;7143;-51
2021/12/06 04:41:25;;;;;;;;;;;;;;;;;;4192932;28;7002;-51
2021/12/06 04:43:46;;;;;;;;;;;;;;;;;;4193295;28;7053;-51
2021/12/06 04:46:08;;;;;;;;;;;;;;;;;;4193988;28;7763;-51
2021/12/06 04:48:30;;;;;;;;;;;;;;;;;;4193084;28;6974;-51
2021/12/06 04:50:52;;;;;;;;;;;;;;;;;;4182016;28;7330;-51
2021/12/06 04:53:15;;;;;;;;;;;;;;;;;;4181478;28;7443;-52
2021/12/06 04:55:39;;;;;;;;;;;;;;;;;;4183203;28;7135;-51
2021/12/06 04:58:00;;;;;;;;;;;;;;;;;;4181637;28;7024;-51
2021/12/06 05:00:24;;;;;;;;;;;;;;;;;;4181395;28;7015;-51
2021/12/06 05:02:48;;;;;;;;;;;;;;;;;;4181558;28;6990;-51
2021/12/06 05:05:11;;;;;;;;;;;;;;;;;;4181276;28;7093;-51
2021/12/06 05:07:32;;;;;;;;;;;;;;;;;;4181345;28;7011;-53
2021/12/06 05:09:54;;;;;;;;;;;;;;;;;;4181420;28;7018;-51
2021/12/06 05:12:16;;;;;;;;;;;;;;;;;;4181959;28;7006;-51
2021/12/06 05:14:37;;;;;;;;;;;;;;;;;;4181793;28;7007;-51
2021/12/06 05:16:59;;;;;;;;;;;;;;;;;;4181412;28;7131;-51
2021/12/06 05:19:21;;;;;;;;;;;;;;;;;;4182540;28;7131;-51
2021/12/06 05:21:42;;;;;;;;;;;;;;;;;;4181190;28;7011;-51
2021/12/06 05:24:04;;;;;;;;;;;;;;;;;;4182568;28;7436;-51
2021/12/06 05:26:25;;;;;;;;;;;;;;;;;;4181112;28;7151;-51
2021/12/06 05:28:48;;;;;;;;;;;;;;;;;;4181114;28;7036;-51
2021/12/06 05:31:15;;;;;;;;;;;;;;;;;;4181202;28;7154;-51
2021/12/06 05:33:36;;;;;;;;;;;;;;;;;;4181540;28;6994;-51
2021/12/06 05:35:59;;;;;;;;;;;;;;;;;;4182305;28;7166;-51
2021/12/06 05:38:20;;;;;;;;;;;;;;;;;;4182324;28;6994;-51
2021/12/06 05:40:43;;;;;;;;;;;;;;;;;;4182199;28;7026;-51
2021/12/06 05:43:04;;;;;;;;;;;;;;;;;;4182075;28;7098;-51
2021/12/06 05:45:27;;;;;;;;;;;;;;;;;;4182020;28;7174;-51
2021/12/06 05:47:48;;;;;;;;;;;;;;;;;;4181929;28;6998;-50
2021/12/06 05:50:10;;;;;;;;;;;;;;;;;;4182289;28;7080;-50
2021/12/06 05:52:33;;;;;;;;;;;;;;;;;;4180790;28;7051;-50
2021/12/06 05:54:54;;;;;;;;;;;;;;;;;;4181956;28;7011;-50
2021/12/06 05:57:15;;;;;;;;;;;;;;;;;;4182118;28;7143;-50
2021/12/06 05:59:37;;;;;;;;;;;;;;;;;;4182057;28;7168;-50
2021/12/06 06:01:58;;;;;;;;;;;;;;;;;;4181171;28;7011;-50
2021/12/06 06:04:19;;;;;;;;;;;;;;;;;;4182019;28;6994;-50
2021/12/06 06:06:41;;;;;;;;;;;;;;;;;;4181993;28;6986;-50
2021/12/06 06:09:03;;;;;;;;;;;;;;;;;;4181481;28;7100;-50
2021/12/06 06:11:24;;;;;;;;;;;;;;;;;;4181607;28;7038;-50
2021/12/06 06:13:46;;;;;;;;;;;;;;;;;;4181707;28;7023;-50
2021/12/06 06:16:07;;;;;;;;;;;;;;;;;;4181446;28;7491;-50
2021/12/06 06:18:28;;;;;;;;;;;;;;;;;;4181687;28;7014;-50
2021/12/06 06:20:51;;;;;;;;;;;;;;;;;;4181346;28;7006;-50
2021/12/06 06:23:12;;;;;;;;;;;;;;;;;;4181257;28;7015;-50
2021/12/06 06:25:35;;;;;;;;;;;;;;;;;;4181266;28;6983;-50
2021/12/06 06:27:56;;;;;;;;;;;;;;;;;;4181315;28;7006;-50
2021/12/06 06:30:18;;;;;;;;;;;;;;;;;;4181196;28;7150;-50
2021/12/06 06:32:39;;;;;;;;;;;;;;;;;;4181052;28;7016;-50
2021/12/06 06:35:01;;;;;;;;;;;;;;;;;;4181068;28;7010;-50
2021/12/06 06:37:22;;;;;;;;;;;;;;;;;;4181553;28;6994;-50
2021/12/06 06:39:43;;;;;;;;;;;;;;;;;;4181430;28;6998;-51
2021/12/06 06:42:06;;;;;;;;;;;;;;;;;;4181029;28;7018;-50
2021/12/06 06:44:27;;;;;;;;;;;;;;;;;;4181010;28;7418;-50
2021/12/06 06:46:49;;;;;;;;;;;;;;;;;;4181240;28;8159;-50
2021/12/06 06:49:10;;;;;;;;;;;;;;;;;;4180014;28;6982;-50
2021/12/06 06:51:31;;;;;;;;;;;;;;;;;;4181324;28;6998;-50
2021/12/06 06:53:52;;;;;;;;;;;;;;;;;;4180969;28;7011;-50
2021/12/06 06:56:14;;;;;;;;;;;;;;;;;;4180943;28;7123;-50
2021/12/06 06:58:36;;;;;;;;;;;;;;;;;;4180756;28;7023;-50
2021/12/06 07:00:58;;;;;;;;;;;;;;;;;;4180508;28;6974;-50
2021/12/06 07:03:19;;;;;;;;;;;;;;;;;;4180809;28;7218;-50
2021/12/06 07:05:40;;;;;;;;;;;;;;;;;;4177061;28;6986;-50
2021/12/06 07:08:02;;;;;;;;;;;;;;;;;;4171767;28;7138;-50
2021/12/06 07:10:23;;;;;;;;;;;;;;;;;;4178017;28;7147;-49
2021/12/06 07:12:48;;;;;;;;;;;;;;;;;;4174402;28;7019;-49
2021/12/06 07:15:11;;;;;;;;;;;;;;;;;;4174338;28;6982;-48
2021/12/06 07:17:33;;;;;;;;;;;;;;;;;;4167331;28;7007;-50
2021/12/06 07:19:54;;;;;;;;;;;;;;;;;;4180301;28;7015;-50
2021/12/06 07:22:15;;;;;;;;;;;;;;;;;;4180434;28;7014;-49
2021/12/06 07:24:36;;;;;;;;;;;;;;;;;;4180575;28;7458;-50
2021/12/06 07:26:58;;;;;;;;;;;;;;;;;;4174073;28;6994;-50
2021/12/06 07:29:19;;;;;;;;;;;;;;;;;;4179003;28;6990;-50
2021/12/06 07:31:41;;;;;;;;;;;;;;;;;;4180368;28;7019;-50
2021/12/06 07:34:03;;;;;;;;;;;;;;;;;;4186558;28;7023;-50
2021/12/06 07:36:28;;;;;;;;;;;;;;;;;;4196651;28;7014;-50
2021/12/06 07:38:50;;;;;;;;;;;;;;;;;;4196705;28;7021;-50
2021/12/06 07:41:14;;;;;;;;;;;;;;;;;;4196929;28;7186;-50
2021/12/06 07:43:35;;;;;;;;;;;;;;;;;;4196909;28;7011;-50
2021/12/06 07:45:57;;;;;;;;;;;;;;;;;;4197265;28;7172;-49
2021/12/06 07:48:19;;;;;;;;;;;;;;;;;;4197041;28;6998;-50
2021/12/06 07:50:40;;;;;;;;;;;;;;;;;;4196836;28;7470;-51
2021/12/06 07:53:01;;;;;;;;;;;;;;;;;;4196897;28;7002;-50
2021/12/06 07:55:24;;;;;;;;;;;;;;;;;;4196947;28;7166;-50
2021/12/06 07:57:45;;;;;;;;;;;;;;;;;;4197082;28;7281;-50
2021/12/06 08:00:08;;;;;;;;;;;;;;;;;;4197091;28;7002;-49
2021/12/06 08:02:29;;;;;;;;;;;;;;;;;;4195924;28;7013;-50
2021/12/06 08:05:00;;;;;;;;;;;;;;;;;;4196843;28;7051;-50
2021/12/06 08:07:23;;;;;;;;;;;;;;;;;;4196868;28;7377;-50
2021/12/06 08:09:44;;;;;;;;;;;;;;;;;;4196897;28;7036;-50
2021/12/06 08:12:06;;;;;;;;;;;;;;;;;;4195607;28;7060;-50
2021/12/06 08:14:27;;;;;;;;;;;;;;;;;;4196939;28;7009;-50
2021/12/06 08:16:49;;;;;;;;;;;;;;;;;;4196957;28;7002;-50
2021/12/06 08:19:10;;;;;;;;;;;;;;;;;;4196856;28;7049;-50
2021/12/06 08:21:33;;;;;;;;;;;;;;;;;;4196877;28;6982;-50
2021/12/06 08:23:54;;;;;;;;;;;;;;;;;;4196685;28;7253;-50
2021/12/06 08:26:15;;;;;;;;;;;;;;;;;;4199789;28;7026;-50
2021/12/06 08:28:37;;;;;;;;;;;;;;;;;;4199637;28;7134;-50
2021/12/06 08:30:58;;;;;;;;;;;;;;;;;;4199819;28;7006;-51
2021/12/06 08:33:20;;;;;;;;;;;;;;;;;;4200066;28;6990;-50
2021/12/06 08:35:45;;;;;;;;;;;;;;;;;;4199702;28;7010;-50
2021/12/06 08:38:07;;;;;;;;;;;;;;;;;;4199837;28;7015;-50
2021/12/06 08:40:28;;;;;;;;;;;;;;;;;;4199770;28;7224;-50
2021/12/06 08:42:50;;;;;;;;;;;;;;;;;;4199574;28;7006;-50
2021/12/06 08:45:11;;;;;;;;;;;;;;;;;;4199727;28;7018;-50
2021/12/06 08:47:33;;;;;;;;;;;;;;;;;;4199901;28;7041;-50
2021/12/06 08:49:54;;;;;;;;;;;;;;;;;;4199416;28;7220;-50
2021/12/06 08:52:16;;;;;;;;;;;;;;;;;;4199619;28;7009;-50
2021/12/06 08:54:39;;;;;;;;;;;;;;;;;;4180103;28;7014;-50
2021/12/06 08:57:01;;;;;;;;;;;;;;;;;;4166555;28;7404;-50
2021/12/06 08:59:22;;;;;;;;;;;;;;;;;;4168796;28;7022;-50
2021/12/06 09:01:43;;;;;;;;;;;;;;;;;;4180033;28;7409;-51
2021/12/06 09:04:08;;;;;;;;;;;;;;;;;;4182586;28;7002;-50
2021/12/06 09:06:29;;;;;;;;;;;;;;;;;;4182111;28;7119;-50
2021/12/06 09:08:51;;;;;;;;;;;;;;;;;;4170227;28;7384;-50
2021/12/06 09:11:14;;;;;;;;;;;;;;;;;;4168430;28;7006;-50
2021/12/06 09:13:35;;;;;;;;;;;;;;;;;;4182383;28;7060;-50
2021/12/06 09:15:57;;;;;;;;;;;;;;;;;;4182347;28;7053;-50
2021/12/06 09:18:18;;;;;;;;;;;;;;;;;;4182479;28;7159;-50
2021/12/06 09:20:40;;;;;;;;;;;;;;;;;;4182447;28;7466;-51
2021/12/06 09:23:01;;;;;;;;;;;;;;;;;;4181607;28;7171;-50
2021/12/06 09:25:23;;;;;;;;;;;;;;;;;;4181768;28;6990;-50
2021/12/06 09:27:45;;;;;;;;;;;;;;;;;;4193300;28;6990;-50
2021/12/06 09:30:07;;;;;;;;;;;;;;;;;;4187922;28;7015;-50
2021/12/06 09:32:28;;;;;;;;;;;;;;;;;;4180262;28;6982;-51
2021/12/06 09:34:51;;;;;;;;;;;;;;;;;;4178919;28;7164;-50
2021/12/06 09:37:13;;;;;;;;;;;;;;;;;;4172010;28;7003;-50
2021/12/06 09:39:34;;;;;;;;;;;;;;;;;;4175800;28;7089;-50
2021/12/06 09:41:56;;;;;;;;;;;;;;;;;;4172210;28;7062;-50
2021/12/06 09:44:19;;;;;;;;;;;;;;;;;;4178853;28;6998;-50
2021/12/06 09:46:42;;;;;;;;;;;;;;;;;;4179332;28;7166;-50
2021/12/06 09:49:04;;;;;;;;;;;;;;;;;;4178697;28;7426;-51
2021/12/06 09:51:25;;;;;;;;;;;;;;;;;;4174861;28;7015;-50
2021/12/06 09:53:47;;;;;;;;;;;;;;;;;;4176735;28;7002;-50
2021/12/06 09:56:10;;;;;;;;;;;;;;;;;;4178258;28;7546;-51
2021/12/06 09:58:31;;;;;;;;;;;;;;;;;;4181216;28;7429;-50
2021/12/06 10:00:55;;;;;;;;;;;;;;;;;;4180691;28;7155;-50
2021/12/06 10:03:22;;;;;;;;;;;;;;;;;;4179834;28;7042;-50
2021/12/06 10:05:43;;;;;;;;;;;;;;;;;;4176203;28;7168;-50
2021/12/06 10:08:05;;;;;;;;;;;;;;;;;;4175503;28;7199;-50
2021/12/06 10:10:26;;;;;;;;;;;;;;;;;;4180871;28;7010;-50
2021/12/06 10:12:52;;;;;;;;;;;;;;;;;;4177110;28;7327;-51
2021/12/06 10:15:13;;;;;;;;;;;;;;;;;;4171834;28;7252;-51
2021/12/06 10:17:36;;;;;;;;;;;;;;;;;;4173821;28;6999;-50
2021/12/06 10:19:57;;;;;;;;;;;;;;;;;;4171691;28;7049;-50
2021/12/06 10:22:18;;;;;;;;;;;;;;;;;;4174625;28;7206;-51
2021/12/06 10:24:41;;;;;;;;;;;;;;;;;;4181276;28;6990;-51
2021/12/06 10:27:03;;;;;;;;;;;;;;;;;;4180871;28;7471;-50
2021/12/06 10:29:32;;;;;;;;;;;;;;;;;;4179693;28;7018;-51
2021/12/06 10:31:53;;;;;;;;;;;;;;;;;;4178704;28;7159;-49
2021/12/06 10:34:16;;;;;;;;;;;;;;;;;;4180390;28;7031;-51
2021/12/06 10:36:37;;;;;;;;;;;;;;;;;;4180608;28;7178;-50
2021/12/06 10:39:00;;;;;;;;;;;;;;;;;;4167687;28;7414;-51
2021/12/06 10:41:22;;;;;;;;;;;;;;;;;;4178635;28;7002;-50
2021/12/06 10:43:50;;;;;;;;;;;;;;;;;;4164153;28;7210;-50
2021/12/06 10:46:11;;;;;;;;;;;;;;;;;;4177064;28;7128;-50
2021/12/06 10:48:32;;;;;;;;;;;;;;;;;;4171802;28;7096;-50
2021/12/06 10:50:59;;;;;;;;;;;;;;;;;;4167880;28;7096;-50
2021/12/06 10:53:21;;;;;;;;;;;;;;;;;;4173427;28;6998;-50
2021/12/06 10:55:44;;;;;;;;;;;;;;;;;;4173530;28;7022;-50
2021/12/06 10:58:06;;;;;;;;;;;;;;;;;;4180436;28;7010;-50
2021/12/06 11:00:29;;;;;;;;;;;;;;;;;;4179323;28;7019;-50
2021/12/06 11:02:51;;;;;;;;;;;;;;;;;;4173294;28;7294;-52
2021/12/06 11:05:22;;;;;;;;;;;;;;;;;;4176062;28;6998;-50
2021/12/06 11:07:45;;;;;;;;;;;;;;;;;;4176151;28;6978;-50
2021/12/06 11:10:07;;;;;;;;;;;;;;;;;;4166269;28;6983;-49
2021/12/06 11:12:29;;;;;;;;;;;;;;;;;;4172339;28;6999;-50
2021/12/06 11:14:51;;;;;;;;;;;;;;;;;;4179074;28;7163;-50
2021/12/06 11:17:16;;;;;;;;;;;;;;;;;;4180239;28;7057;-50
2021/12/06 11:19:38;;;;;;;;;;;;;;;;;;4179757;28;7014;-50
2021/12/06 11:22:00;;;;;;;;;;;;;;;;;;4178658;28;7018;-51
2021/12/06 11:24:23;;;;;;;;;;;;;;;;;;4168125;28;7171;-50
2021/12/06 11:26:58;;;;;;;;;;;;;;;;;;4162515;28;7055;-51
2021/12/06 11:29:20;;;;;;;;;;;;;;;;;;4165352;28;7112;-50
2021/12/06 11:31:42;;;;;;;;;;;;;;;;;;4170491;28;7520;-50
2021/12/06 11:34:04;;;;;;;;;;;;;;;;;;4175930;28;7003;-50
2021/12/06 11:36:25;;;;;;;;;;;;;;;;;;4177714;28;7010;-50
2021/12/06 11:38:48;;;;;;;;;;;;;;;;;;4175393;28;7033;-50
2021/12/06 11:41:12;;;;;;;;;;;;;;;;;;4178656;28;7002;-50
2021/12/06 11:43:37;;;;;;;;;;;;;;;;;;4176028;28;7099;-50
2021/12/06 11:45:59;;;;;;;;;;;;;;;;;;4175716;28;7018;-50
2021/12/06 11:48:24;;;;;;;;;;;;;;;;;;4174821;28;6990;-50
2021/12/06 11:50:46;;;;;;;;;;;;;;;;;;4170861;28;7002;-50
2021/12/06 11:53:07;;;;;;;;;;;;;;;;;;4171740;28;7269;-50
2021/12/06 11:55:29;;;;;;;;;;;;;;;;;;4179271;28;7010;-50
2021/12/06 11:57:54;;;;;;;;;;;;;;;;;;4177763;28;7030;-50
2021/12/06 12:00:16;;;;;;;;;;;;;;;;;;4181023;28;7447;-51
2021/12/06 12:02:40;;;;;;;;;;;;;;;;;;4182252;28;7169;-50
2021/12/06 12:05:17;;;;;;;;;;;;;;;;;;4182102;28;7256;-50
2021/12/06 12:07:53;;;;;;;;;;;;;;;;;;4181744;28;7006;-50
2021/12/06 12:10:16;;;;;;;;;;;;;;;;;;4175809;28;6986;-50
2021/12/06 12:12:39;;;;;;;;;;;;;;;;;;4169702;28;7022;-50
2021/12/06 12:15:02;;;;;;;;;;;;;;;;;;4175278;28;7155;-51
2021/12/06 12:17:25;;;;;;;;;;;;;;;;;;4182888;28;6998;-50
2021/12/06 12:19:47;;;;;;;;;;;;;;;;;;4182480;28;7043;-50
2021/12/06 12:22:09;;;;;;;;;;;;;;;;;;4182527;28;7023;-50
2021/12/06 12:24:31;;;;;;;;;;;;;;;;;;4165722;28;7098;-50
2021/12/06 12:27:02;;;;;;;;;;;;;;;;;;4165427;28;6995;-50
2021/12/06 12:29:26;;;;;;;;;;;;;;;;;;4165608;28;7186;-50
2021/12/06 12:31:49;;;;;;;;;;;;;;;;;;4165743;28;7116;-50
2021/12/06 12:34:10;;;;;;;;;;;;;;;;;;4165843;28;7038;-50
2021/12/06 12:36:34;;;;;;;;;;;;;;;;;;4166227;28;7077;-50
2021/12/06 12:38:57;;;;;;;;;;;;;;;;;;4166471;28;7211;-50
2021/12/06 12:41:19;;;;;;;;;;;;;;;;;;4165241;28;7014;-50
2021/12/06 12:43:41;;;;;;;;;;;;;;;;;;4165270;28;7057;-50
2021/12/06 12:46:04;;;;;;;;;;;;;;;;;;4166303;28;7039;-51
2021/12/06 12:48:27;;;;;;;;;;;;;;;;;;4181019;28;7092;-50
2021/12/06 12:51:00;;;;;;;;;;;;;;;;;;4182078;28;7489;-50
2021/12/06 12:53:22;;;;;;;;;;;;;;;;;;4181654;28;7022;-50
2021/12/06 12:55:45;;;;;;;;;;;;;;;;;;4181861;28;7073;-50
2021/12/06 12:58:11;;;;;;;;;;;;;;;;;;4182185;28;7209;-50
2021/12/06 13:00:32;;;;;;;;;;;;;;;;;;4182312;28;6994;-50
2021/12/06 13:02:53;;;;;;;;;;;;;;;;;;4181713;28;7073;-50
2021/12/06 13:05:20;;;;;;;;;;;;;;;;;;4181849;28;6990;-50
2021/12/06 13:07:56;;;;;;;;;;;;;;;;;;4179491;28;7199;-51
2021/12/06 13:10:30;;;;;;;;;;;;;;;;;;4164863;28;7034;-50
2021/12/06 13:12:54;;;;;;;;;;;;;;;;;;4165685;28;7054;-51
2021/12/06 13:15:19;;;;;;;;;;;;;;;;;;4165395;28;7049;-50
2021/12/06 13:17:46;;;;;;;;;;;;;;;;;;4164928;28;7196;-51
2021/12/06 13:20:10;;;;;;;;;;;;;;;;;;4165286;28;7149;-51
2021/12/06 13:22:33;;;;;;;;;;;;;;;;;;4164970;28;7010;-50
2021/12/06 13:24:58;;;;;;;;;;;;;;;;;;4165042;28;7104;-50
2021/12/06 13:27:26;;;;;;;;;;;;;;;;;;4173901;28;7401;-50
2021/12/06 13:29:48;;;;;;;;;;;;;;;;;;4180730;28;7100;-50
2021/12/06 13:32:28;;;;;;;;;;;;;;;;;;4179343;28;7002;-50
2021/12/06 13:34:50;;;;;;;;;;;;;;;;;;4178226;28;7207;-50
2021/12/06 13:37:11;;;;;;;;;;;;;;;;;;4177210;28;7057;-51
2021/12/06 13:39:35;;;;;;;;;;;;;;;;;;4164755;28;7525;-50
2021/12/06 13:41:57;;;;;;;;;;;;;;;;;;4164409;28;7002;-50
2021/12/06 13:44:21;;;;;;;;;;;;;;;;;;4180349;28;7030;-50
2021/12/06 13:46:43;;;;;;;;;;;;;;;;;;4181072;28;7167;-50
2021/12/06 13:49:05;;;;;;;;;;;;;;;;;;4181522;28;7002;-50
2021/12/06 13:51:35;;;;;;;;;;;;;;;;;;4181292;28;7010;-50
2021/12/06 13:53:57;;;;;;;;;;;;;;;;;;4168140;28;7049;-50
2021/12/06 13:56:19;;;;;;;;;;;;;;;;;;4164529;28;7037;-50
2021/12/06 13:58:40;;;;;;;;;;;;;;;;;;4164282;28;7132;-50
2021/12/06 14:01:03;;;;;;;;;;;;;;;;;;4164697;28;7510;-50
2021/12/06 14:03:32;;;;;;;;;;;;;;;;;;4164858;28;7043;-51
2021/12/06 14:05:53;;;;;;;;;;;;;;;;;;4164468;28;7003;-50
2021/12/06 14:08:15;;;;;;;;;;;;;;;;;;4164076;28;7030;-50
2021/12/06 14:10:37;;;;;;;;;;;;;;;;;;4163937;28;7045;-50
2021/12/06 14:13:00;;;;;;;;;;;;;;;;;;4164492;28;7170;-50
2021/12/06 14:15:31;;;;;;;;;;;;;;;;;;4164582;28;7006;-50
2021/12/06 14:17:54;;;;;;;;;;;;;;;;;;4164044;28;7447;-50
2021/12/06 14:20:16;;;;;;;;;;;;;;;;;;4164657;28;6959;-50
2021/12/06 14:22:37;;;;;;;;;;;;;;;;;;4164819;28;7187;-50
2021/12/06 14:24:59;;;;;;;;;;;;;;;;;;4172219;28;7048;-51
2021/12/06 14:27:25;;;;;;;;;;;;;;;;;;4164765;28;7066;-50
2021/12/06 14:29:51;;;;;;;;;;;;;;;;;;4164373;28;7034;-50
2021/12/06 14:32:12;;;;;;;;;;;;;;;;;;4164837;28;7002;-50
2021/12/06 14:34:34;;;;;;;;;;;;;;;;;;4164879;28;7002;-50
2021/12/06 14:36:55;;;;;;;;;;;;;;;;;;4163385;28;7023;-50
2021/12/06 14:39:17;;;;;;;;;;;;;;;;;;4164013;28;7006;-50
2021/12/06 14:41:49;;;;;;;;;;;;;;;;;;4164424;28;7002;-51
2021/12/06 14:44:10;;;;;;;;;;;;;;;;;;4164419;28;7124;-50
2021/12/06 14:46:33;;;;;;;;;;;;;;;;;;4166442;28;7562;-50
2021/12/06 14:48:55;;;;;;;;;;;;;;;;;;4168226;28;7076;-50
2021/12/06 14:51:17;;;;;;;;;;;;;;;;;;4173335;28;7080;-51
2021/12/06 14:53:50;;;;;;;;;;;;;;;;;;4180197;28;7006;-51
2021/12/06 14:56:23;;;;;;;;;;;;;;;;;;4180444;28;7431;-50
2021/12/06 14:58:45;;;;;;;;;;;;;;;;;;4194942;28;7019;-50
2021/12/06 15:01:09;;;;;;;;;;;;;;;;;;4209942;28;7296;-50
2021/12/06 15:03:38;;;;;;;;;;;;;;;;;;4196781;28;7002;-50
2021/12/06 15:06:01;;;;;;;;;;;;;;;;;;4196788;28;7014;-50
2021/12/06 15:08:23;;;;;;;;;;;;;;;;;;4181213;28;7035;-50
2021/12/06 15:10:45;;;;;;;;;;;;;;;;;;4164012;28;7175;-50
2021/12/06 15:13:06;;;;;;;;;;;;;;;;;;4164094;28;6994;-52
2021/12/06 15:15:28;;;;;;;;;;;;;;;;;;4163981;28;7415;-50
2021/12/06 15:17:51;;;;;;;;;;;;;;;;;;4163709;28;7155;-51
2021/12/06 15:20:14;;;;;;;;;;;;;;;;;;4163504;28;7086;-51
2021/12/06 15:22:38;;;;;;;;;;;;;;;;;;4173974;28;6974;-51
2021/12/06 15:24:59;;;;;;;;;;;;;;;;;;4174653;28;6998;-51
2021/12/06 15:27:21;;;;;;;;;;;;;;;;;;4171914;28;7006;-50
2021/12/06 15:29:46;;;;;;;;;;;;;;;;;;4173515;28;7069;-50
2021/12/06 15:32:09;;;;;;;;;;;;;;;;;;4175026;28;7054;-50
2021/12/06 15:34:30;;;;;;;;;;;;;;;;;;4175006;28;7077;-51
2021/12/06 15:36:53;;;;;;;;;;;;;;;;;;4176877;28;7026;-50
2021/12/06 15:39:15;;;;;;;;;;;;;;;;;;4174698;28;7125;-50
2021/12/06 15:41:37;;;;;;;;;;;;;;;;;;4174471;28;7170;-50
2021/12/06 15:44:01;;;;;;;;;;;;;;;;;;4178098;28;7018;-51
2021/12/06 15:46:23;;;;;;;;;;;;;;;;;;4177357;28;6990;-51
2021/12/06 15:48:45;;;;;;;;;;;;;;;;;;4178179;28;7073;-50
2021/12/06 15:51:06;;;;;;;;;;;;;;;;;;4185063;28;7269;-50
2021/12/06 15:53:29;;;;;;;;;;;;;;;;;;4178917;28;7172;-51
2021/12/06 15:55:52;;;;;;;;;;;;;;;;;;4163434;28;7037;-51
2021/12/06 15:58:17;;;;;;;;;;;;;;;;;;4170726;28;7096;-50
2021/12/06 16:00:39;;;;;;;;;;;;;;;;;;4164202;28;7233;-50
2021/12/06 16:03:01;;;;;;;;;;;;;;;;;;4175747;28;6982;-50
2021/12/06 16:05:24;;;;;;;;;;;;;;;;;;4170813;28;7006;-51
2021/12/06 16:07:50;;;;;;;;;;;;;;;;;;4161806;28;7002;-51
2021/12/06 16:10:14;;;;;;;;;;;;;;;;;;4163353;28;7019;-51
2021/12/06 16:12:38;;;;;;;;;;;;;;;;;;4173238;28;7003;-50
2021/12/06 16:15:02;;;;;;;;;;;;;;;;;;4172511;28;6994;-51
2021/12/06 16:17:23;;;;;;;;;;;;;;;;;;4169542;28;7151;-50
2021/12/06 16:19:45;;;;;;;;;;;;;;;;;;4175904;28;7006;-50
2021/12/06 16:22:08;;;;;;;;;;;;;;;;;;4172648;28;7019;-50
2021/12/06 16:24:31;;;;;;;;;;;;;;;;;;4163167;28;7403;-50
2021/12/06 16:26:55;;;;;;;;;;;;;;;;;;4163206;28;7043;-50
2021/12/06 16:29:17;;;;;;;;;;;;;;;;;;4175885;28;7010;-50
2021/12/06 16:31:39;;;;;;;;;;;;;;;;;;4176442;28;7082;-50
2021/12/06 16:34:01;;;;;;;;;;;;;;;;;;4179446;28;7006;-50
2021/12/06 16:36:24;;;;;;;;;;;;;;;;;;4167127;28;6998;-51
2021/12/06 16:38:46;;;;;;;;;;;;;;;;;;4169571;28;7084;-50
2021/12/06 16:41:11;;;;;;;;;;;;;;;;;;4186044;28;7006;-51
2021/12/06 16:43:35;;;;;;;;;;;;;;;;;;4171748;28;7064;-50
2021/12/06 16:45:59;;;;;;;;;;;;;;;;;;4169606;28;7057;-51
2021/12/06 16:48:24;;;;;;;;;;;;;;;;;;4182797;28;7114;-50
2021/12/06 16:50:50;;;;;;;;;;;;;;;;;;4167737;28;6978;-52
2021/12/06 16:53:12;;;;;;;;;;;;;;;;;;4165747;28;7026;-50
2021/12/06 16:55:34;;;;;;;;;;;;;;;;;;4181504;28;7011;-50
2021/12/06 16:57:57;;;;;;;;;;;;;;;;;;4165817;28;7171;-50